Time;durP1;ratioP1;P1;durP2;ratioP2;P2;SDS_P1;SDS_P2;PMS_P1;PMS_P2;Temp;Humidity;BMP_temperature;BMP_pressure;BME280_temperature;BME280_humidity;BME280_pressure;Samples;Min_cycle;Max_cycle;Signal;HPM_P1;HPM_P2
2021/12/16 00:02:03;;;;;;;29.63;15.00;;;2.00;99.90;;;;;;4976588;28;20195;-65
2021/12/16 00:10:03;;;;;;;30.60;15.70;;;2.00;99.90;;;;;;4968231;28;20202;-64
2021/12/16 00:29:41;;;;;;;32.97;16.20;;;2.10;99.90;;;;;;4971943;28;20257;-63
2021/12/16 00:32:20;;;;;;;36.07;16.73;;;2.00;99.90;;;;;;4988481;28;20269;-64
2021/12/16 00:34:48;;;;;;;33.33;15.07;;;2.00;99.90;;;;;;4990356;28;20295;-64
2021/12/16 00:37:16;;;;;;;34.77;16.57;;;2.00;99.90;;;;;;4985720;28;20591;-64
2021/12/16 00:39:44;;;;;;;33.07;16.47;;;2.00;99.90;;;;;;4971445;28;20672;-65
2021/12/16 00:42:23;;;;;;;32.97;16.00;;;2.00;99.90;;;;;;4971564;28;20215;-64
2021/12/16 00:47:46;;;;;;;35.73;15.67;;;2.00;99.90;;;;;;4968720;28;20200;-65
2021/12/16 00:54:08;;;;;;;35.87;16.33;;;2.00;99.90;;;;;;4971750;28;20203;-65
2021/12/16 00:55:59;;;;;;;33.03;15.60;;;2.00;99.90;;;;;;4971217;28;20305;-65
2021/12/16 00:58:48;;;;;;;36.77;17.10;;;2.00;99.90;;;;;;4971337;28;20291;-64
2021/12/16 01:34:59;;;;;;;42.50;18.60;;;2.00;99.90;;;;;;4971003;28;20682;-65
2021/12/16 01:40:37;;;;;;;50.03;19.40;;;2.00;99.90;;;;;;4945610;28;20201;-64
2021/12/16 01:46:25;;;;;;;44.57;19.03;;;1.90;99.90;;;;;;4971114;28;20184;-64
2021/12/16 01:51:41;;;;;;;48.73;19.13;;;1.90;99.90;;;;;;4940588;28;20200;-64
2021/12/16 01:57:06;;;;;;;46.00;19.00;;;1.90;99.90;;;;;;4973826;28;20588;-64
2021/12/16 01:59:35;;;;;;;43.53;19.00;;;1.90;99.90;;;;;;4970803;28;20214;-63
2021/12/16 02:02:13;;;;;;;51.53;19.57;;;1.90;99.90;;;;;;4970542;28;20278;-64
2021/12/16 02:04:54;;;;;;;45.00;19.40;;;1.90;99.90;;;;;;4970752;28;20742;-64
2021/12/16 02:07:42;;;;;;;49.70;19.10;;;1.90;99.90;;;;;;4970820;28;20651;-63
2021/12/16 02:10:13;;;;;;;50.63;20.37;;;1.90;99.90;;;;;;4970133;28;20243;-64
2021/12/16 02:12:54;;;;;;;50.77;21.03;;;1.90;99.90;;;;;;4967155;28;20598;-64
2021/12/16 02:29:17;;;;;;;60.37;22.30;;;1.90;99.90;;;;;;4968831;28;20195;-65
2021/12/16 02:31:55;;;;;;;57.27;21.07;;;2.00;99.90;;;;;;4965647;28;20566;-65
2021/12/16 02:34:43;;;;;;;60.30;21.83;;;2.00;99.90;;;;;;4969806;28;20237;-64
2021/12/16 02:37:17;;;;;;;63.73;22.93;;;2.00;99.90;;;;;;4970216;28;20232;-65
2021/12/16 02:39:45;;;;;;;56.50;20.43;;;2.00;99.90;;;;;;4970268;28;20200;-64
2021/12/16 02:42:17;;;;;;;63.90;22.43;;;2.00;99.90;;;;;;4970223;28;20207;-67
2021/12/16 02:50:12;;;;;;;58.23;21.50;;;2.10;99.90;;;;;;4950593;29;20196;-64
2021/12/16 02:52:41;;;;;;;53.60;20.70;;;2.10;99.90;;;;;;4950244;28;20216;-65
2021/12/16 02:55:10;;;;;;;56.80;22.10;;;2.10;99.90;;;;;;4950710;28;20235;-64
2021/12/16 02:57:45;;;;;;;57.70;23.30;;;2.20;99.90;;;;;;4950564;28;20616;-65
2021/12/16 03:00:15;;;;;;;60.33;22.63;;;2.20;99.90;;;;;;4950737;28;20200;-64
2021/12/16 03:02:45;;;;;;;52.93;20.20;;;2.20;99.90;;;;;;4950690;28;20696;-63
2021/12/16 03:05:12;;;;;;;51.43;20.37;;;2.20;99.90;;;;;;4950781;28;20223;-65
2021/12/16 03:07:41;;;;;;;50.37;20.80;;;2.20;99.90;;;;;;4972430;28;20231;-64
2021/12/16 03:10:46;;;;;;;53.27;20.60;;;2.20;99.90;;;;;;4949999;28;20233;-65
2021/12/16 03:13:20;;;;;;;49.30;19.60;;;2.20;99.90;;;;;;4950314;28;20208;-64
2021/12/16 03:16:02;;;;;;;47.37;19.57;;;2.20;99.90;;;;;;4950171;28;20288;-63
2021/12/16 03:18:38;;;;;;;49.27;19.57;;;2.20;99.90;;;;;;4950378;29;20200;-62
2021/12/16 03:21:15;;;;;;;45.73;19.90;;;2.20;99.90;;;;;;4950323;29;20307;-62
2021/12/16 03:23:58;;;;;;;49.33;19.80;;;2.10;99.90;;;;;;4955082;28;20230;-61
2021/12/16 03:26:53;;;;;;;48.23;21.07;;;2.10;99.90;;;;;;4950239;28;20287;-62
2021/12/16 03:32:27;;;;;;;48.07;19.87;;;2.20;99.90;;;;;;4950184;28;20243;-61
2021/12/16 03:35:00;;;;;;;46.90;19.70;;;2.20;99.90;;;;;;4960637;28;20557;-62
2021/12/16 03:37:29;;;;;;;53.77;21.40;;;2.20;99.90;;;;;;4970919;28;20216;-62
2021/12/16 03:40:01;;;;;;;49.10;20.97;;;2.20;99.90;;;;;;4968163;28;20204;-62
2021/12/16 03:42:30;;;;;;;50.10;21.13;;;2.20;99.90;;;;;;4971217;28;20579;-62
2021/12/16 03:45:06;;;;;;;55.30;22.10;;;2.20;99.90;;;;;;4971319;28;20302;-62
2021/12/16 03:47:37;;;;;;;57.60;21.67;;;2.20;99.90;;;;;;4971022;28;20308;-62
2021/12/16 03:50:09;;;;;;;62.70;22.73;;;2.10;99.90;;;;;;4971746;28;20224;-62
2021/12/16 03:52:36;;;;;;;52.20;21.30;;;2.10;99.90;;;;;;4968860;28;20603;-62
2021/12/16 03:55:07;;;;;;;60.10;20.93;;;2.10;99.90;;;;;;4971149;28;20235;-61
2021/12/16 03:57:34;;;;;;;63.50;22.47;;;2.10;99.90;;;;;;4960863;28;20323;-61
2021/12/16 04:00:01;;;;;;;62.60;22.47;;;2.10;99.90;;;;;;4954762;28;20208;-62
2021/12/16 04:02:35;;;;;;;61.47;21.80;;;2.10;99.90;;;;;;4971309;28;20219;-62
2021/12/16 04:05:04;;;;;;;57.43;21.20;;;2.00;99.90;;;;;;4972055;28;20193;-62
2021/12/16 04:07:33;;;;;;;53.00;21.17;;;2.00;99.90;;;;;;4967313;28;20572;-61
2021/12/16 04:10:01;;;;;;;57.23;21.40;;;2.00;99.90;;;;;;4972069;28;20210;-60
2021/12/16 04:12:29;;;;;;;59.93;22.43;;;2.10;99.90;;;;;;4971505;28;20351;-61
2021/12/16 04:15:00;;;;;;;59.50;22.53;;;2.10;99.90;;;;;;4972133;28;20683;-64
2021/12/16 04:17:29;;;;;;;62.83;22.63;;;2.10;99.90;;;;;;4971298;28;20227;-62
2021/12/16 04:19:57;;;;;;;53.30;21.93;;;2.10;99.90;;;;;;4971694;28;20212;-62
2021/12/16 04:22:30;;;;;;;58.17;22.50;;;2.10;99.90;;;;;;4971278;28;20204;-61
2021/12/16 04:24:58;;;;;;;58.00;22.30;;;2.10;99.90;;;;;;4953718;28;20205;-63
2021/12/16 04:27:25;;;;;;;56.37;22.23;;;2.00;99.90;;;;;;4952087;28;20743;-62
2021/12/16 04:29:53;;;;;;;54.87;22.13;;;2.10;99.90;;;;;;4952764;28;20219;-61
2021/12/16 04:32:20;;;;;;;63.03;22.63;;;2.10;99.90;;;;;;4963870;28;20200;-62
2021/12/16 04:34:48;;;;;;;64.20;23.13;;;2.00;99.90;;;;;;4971900;28;20219;-62
2021/12/16 04:37:15;;;;;;;58.20;22.63;;;2.10;99.90;;;;;;4971275;28;20220;-62
2021/12/16 04:39:44;;;;;;;58.70;21.83;;;2.10;99.90;;;;;;4971662;28;20211;-63
2021/12/16 04:42:13;;;;;;;65.17;23.17;;;2.10;99.90;;;;;;4960791;28;20205;-64
2021/12/16 04:44:41;;;;;;;61.63;23.00;;;2.10;99.90;;;;;;4952515;28;20215;-63
2021/12/16 04:47:10;;;;;;;59.07;23.30;;;2.10;99.90;;;;;;4951855;28;20204;-62
2021/12/16 04:49:37;;;;;;;65.13;22.43;;;2.10;99.90;;;;;;4952123;28;20239;-62
2021/12/16 04:52:10;;;;;;;75.13;26.73;;;2.10;99.90;;;;;;4959743;28;20211;-62
2021/12/16 04:54:37;;;;;;;60.87;22.57;;;2.10;99.90;;;;;;4971405;28;20199;-61
2021/12/16 04:57:04;;;;;;;58.80;22.17;;;2.10;99.90;;;;;;4971157;28;20231;-63
2021/12/16 04:59:34;;;;;;;65.27;23.40;;;2.10;99.90;;;;;;4971320;28;20235;-62
2021/12/16 05:02:06;;;;;;;65.73;22.80;;;2.10;99.90;;;;;;4963393;28;20688;-62
2021/12/16 05:04:35;;;;;;;65.03;22.90;;;2.10;99.90;;;;;;4952082;28;20205;-60
2021/12/16 05:07:04;;;;;;;68.23;24.87;;;2.10;99.90;;;;;;4951720;29;20271;-62
2021/12/16 05:10:02;;;;;;;67.27;24.60;;;2.10;99.90;;;;;;4951647;28;20209;-62
2021/12/16 05:12:32;;;;;;;61.20;23.20;;;2.10;99.90;;;;;;4952750;28;20216;-63
2021/12/16 05:14:59;;;;;;;70.63;24.97;;;2.00;99.90;;;;;;4951530;28;20197;-63
2021/12/16 05:17:30;;;;;;;67.30;24.20;;;1.90;99.90;;;;;;4968073;28;20228;-62
2021/12/16 05:20:01;;;;;;;65.57;24.00;;;1.90;99.90;;;;;;4970924;28;20193;-61
2021/12/16 05:25:21;;;;;;;68.83;25.57;;;2.00;99.90;;;;;;4970655;28;20542;-62
2021/12/16 05:27:48;;;;;;;61.87;25.07;;;1.90;99.90;;;;;;4951967;28;20586;-62
2021/12/16 05:30:16;;;;;;;69.10;25.43;;;1.90;99.90;;;;;;4951200;29;20209;-62
2021/12/16 05:32:45;;;;;;;67.80;24.60;;;2.00;99.90;;;;;;4951501;28;20209;-63
2021/12/16 05:35:16;;;;;;;58.20;22.50;;;2.00;99.90;;;;;;4951232;28;20308;-62
2021/12/16 05:37:44;;;;;;;61.97;23.97;;;2.00;99.90;;;;;;4968706;28;20212;-62
2021/12/16 05:40:14;;;;;;;66.10;23.60;;;2.00;99.90;;;;;;4970440;28;20222;-62
2021/12/16 05:42:41;;;;;;;61.67;23.07;;;1.90;99.90;;;;;;4960703;28;20262;-61
2021/12/16 05:45:10;;;;;;;61.47;24.17;;;2.00;99.90;;;;;;4951147;28;20395;-62
2021/12/16 05:47:37;;;;;;;58.53;23.07;;;1.90;99.90;;;;;;4951587;28;20205;-61
2021/12/16 05:50:05;;;;;;;57.87;22.17;;;2.00;99.90;;;;;;4951360;28;20236;-64
2021/12/16 05:52:33;;;;;;;64.20;24.37;;;2.00;99.90;;;;;;4958918;28;20208;-61
2021/12/16 05:55:01;;;;;;;56.67;23.00;;;2.00;99.90;;;;;;4969728;28;20644;-64
2021/12/16 05:57:28;;;;;;;52.83;21.77;;;2.00;99.90;;;;;;4970731;28;20277;-62
2021/12/16 05:59:55;;;;;;;54.70;22.53;;;2.00;99.90;;;;;;4969401;28;20208;-61
2021/12/16 06:02:21;;;;;;;62.07;25.03;;;2.00;99.90;;;;;;4970616;28;20212;-63
2021/12/16 06:04:50;;;;;;;59.23;24.30;;;2.00;99.90;;;;;;4965756;28;20208;-63
2021/12/16 06:07:17;;;;;;;65.17;25.73;;;1.90;99.90;;;;;;4969787;28;20200;-61
2021/12/16 06:09:46;;;;;;;57.50;23.50;;;1.90;99.90;;;;;;4970463;28;20204;-61
2021/12/16 06:12:14;;;;;;;60.13;23.77;;;2.00;99.90;;;;;;4970108;28;20216;-60
2021/12/16 06:15:00;;;;;;;62.37;24.87;;;2.00;99.90;;;;;;4968034;28;20216;-61
2021/12/16 06:28:23;;;;;;;56.67;23.97;;;1.90;99.90;;;;;;4937966;29;20224;-63
2021/12/16 06:30:50;;;;;;;57.60;23.57;;;1.80;99.90;;;;;;4953839;28;20592;-61
2021/12/16 06:33:20;;;;;;;49.53;21.87;;;1.80;99.90;;;;;;4969485;28;20204;-62
2021/12/16 06:35:48;;;;;;;58.57;24.73;;;1.80;99.90;;;;;;4969891;28;20256;-61
2021/12/16 06:38:15;;;;;;;53.23;21.93;;;1.90;99.90;;;;;;4969845;28;20224;-64
2021/12/16 06:40:43;;;;;;;55.93;23.67;;;1.90;99.90;;;;;;4970014;28;20215;-62
2021/12/16 06:43:11;;;;;;;52.27;22.23;;;1.90;99.90;;;;;;4964443;28;20287;-62
2021/12/16 06:45:41;;;;;;;51.63;22.03;;;1.90;99.90;;;;;;4950969;28;20232;-61
2021/12/16 06:48:12;;;;;;;55.17;23.30;;;2.00;99.90;;;;;;4950519;28;20571;-62
2021/12/16 06:50:46;;;;;;;53.63;22.87;;;2.00;99.90;;;;;;4950701;28;20193;-62
2021/12/16 06:53:20;;;;;;;49.90;23.50;;;1.90;99.90;;;;;;4956214;28;20198;-62
2021/12/16 06:55:56;;;;;;;50.83;21.40;;;2.00;99.90;;;;;;4969469;28;20200;-61
2021/12/16 06:58:30;;;;;;;49.97;21.73;;;2.00;99.90;;;;;;4969742;28;20683;-65
2021/12/16 07:01:07;;;;;;;46.83;20.23;;;2.00;99.90;;;;;;4969646;28;20193;-62
2021/12/16 07:03:45;;;;;;;47.30;21.33;;;2.00;99.90;;;;;;4965433;28;20283;-62
2021/12/16 07:06:13;;;;;;;50.63;21.20;;;2.00;99.90;;;;;;4969943;28;20188;-65
2021/12/16 07:08:40;;;;;;;45.83;20.20;;;2.00;99.90;;;;;;4969938;28;20200;-61
2021/12/16 07:11:08;;;;;;;39.80;19.80;;;2.10;99.90;;;;;;4971212;28;20231;-62
2021/12/16 07:13:40;;;;;;;42.07;19.30;;;2.10;99.90;;;;;;4970144;28;20196;-62
2021/12/16 07:16:07;;;;;;;46.33;20.20;;;2.10;99.90;;;;;;4954237;28;20224;-61
2021/12/16 07:18:34;;;;;;;49.90;21.07;;;2.10;99.90;;;;;;4953753;28;20233;-62
2021/12/16 07:21:02;;;;;;;46.80;20.70;;;2.10;99.90;;;;;;4953632;28;20390;-63
2021/12/16 07:23:29;;;;;;;47.63;21.70;;;2.10;99.90;;;;;;4969482;28;20600;-61
2021/12/16 07:25:58;;;;;;;42.40;18.67;;;2.20;99.90;;;;;;4972990;28;20568;-61
2021/12/16 07:28:26;;;;;;;39.93;17.43;;;2.10;99.90;;;;;;4972666;28;20341;-64
2021/12/16 07:30:53;;;;;;;49.67;20.20;;;2.20;99.90;;;;;;4968917;28;20211;-61
2021/12/16 07:33:20;;;;;;;42.23;18.57;;;2.20;99.90;;;;;;4966413;28;20196;-62
2021/12/16 07:35:48;;;;;;;47.57;20.17;;;2.20;99.90;;;;;;4953153;28;20537;-61
2021/12/16 07:38:16;;;;;;;52.60;20.63;;;2.20;99.90;;;;;;4953353;28;20256;-62
2021/12/16 07:40:44;;;;;;;41.13;18.80;;;2.20;99.90;;;;;;4959765;28;20239;-63
2021/12/16 07:43:23;;;;;;;47.57;20.23;;;2.20;99.90;;;;;;4972043;28;20211;-61
2021/12/16 07:45:55;;;;;;;47.60;20.30;;;2.30;99.90;;;;;;4972205;28;20200;-62
2021/12/16 07:48:24;;;;;;;45.57;19.67;;;2.20;99.90;;;;;;4971273;28;20220;-60
2021/12/16 07:50:56;;;;;;;47.23;20.63;;;2.30;99.90;;;;;;4954099;28;20209;-62
2021/12/16 07:53:23;;;;;;;52.83;21.40;;;2.30;99.90;;;;;;4952985;28;20204;-62
2021/12/16 07:55:50;;;;;;;48.33;21.77;;;2.30;99.90;;;;;;4952799;28;20217;-63
2021/12/16 07:58:19;;;;;;;46.50;19.10;;;2.30;99.90;;;;;;4952783;28;20233;-62
2021/12/16 08:00:47;;;;;;;43.63;19.50;;;2.20;99.90;;;;;;4967379;28;20784;-63
2021/12/16 08:03:17;;;;;;;47.27;21.50;;;2.20;99.90;;;;;;4952939;28;20208;-62
2021/12/16 08:05:47;;;;;;;48.37;21.87;;;2.20;99.90;;;;;;4953434;28;20649;-63
2021/12/16 08:08:15;;;;;;;48.97;22.33;;;2.20;99.90;;;;;;4953174;28;20215;-61
2021/12/16 08:10:43;;;;;;;53.53;22.50;;;2.30;99.90;;;;;;4968968;28;20207;-62
2021/12/16 08:13:10;;;;;;;51.57;21.43;;;2.30;99.90;;;;;;4960215;28;20207;-62
2021/12/16 08:15:37;;;;;;;43.63;21.30;;;2.30;99.90;;;;;;4952702;28;20216;-62
2021/12/16 08:18:04;;;;;;;48.20;21.53;;;2.30;99.90;;;;;;4957959;28;20235;-64
2021/12/16 08:20:32;;;;;;;54.20;22.40;;;2.40;99.90;;;;;;4971905;28;20213;-62
2021/12/16 08:23:00;;;;;;;54.07;21.87;;;2.40;99.90;;;;;;4971187;28;20208;-61
2021/12/16 08:25:30;;;;;;;43.87;20.50;;;2.40;99.90;;;;;;4972060;28;20661;-61
2021/12/16 08:27:57;;;;;;;43.27;20.20;;;2.40;99.90;;;;;;4968019;28;20247;-62
2021/12/16 08:30:27;;;;;;;42.57;19.80;;;2.40;99.90;;;;;;4953461;28;20298;-62
2021/12/16 08:32:54;;;;;;;45.30;19.90;;;2.40;99.90;;;;;;4952384;28;20208;-61
2021/12/16 08:35:21;;;;;;;47.30;20.80;;;2.40;99.90;;;;;;4953676;28;20854;-62
2021/12/16 08:37:50;;;;;;;46.37;20.40;;;2.50;99.90;;;;;;4952124;28;20223;-62
2021/12/16 08:40:21;;;;;;;47.30;21.03;;;2.50;99.90;;;;;;4952768;28;20212;-61
2021/12/16 08:42:48;;;;;;;49.57;20.37;;;2.50;99.90;;;;;;4960757;28;20201;-64
2021/12/16 08:45:20;;;;;;;44.20;20.07;;;2.60;99.90;;;;;;4952568;28;20304;-61
2021/12/16 08:47:47;;;;;;;45.73;20.10;;;2.60;99.90;;;;;;4952176;29;20200;-62
2021/12/16 08:50:18;;;;;;;47.37;20.57;;;2.60;99.90;;;;;;4952167;28;20213;-62
2021/12/16 08:52:45;;;;;;;41.70;20.30;;;2.60;99.90;;;;;;4953039;28;20661;-62
2021/12/16 08:55:15;;;;;;;45.83;20.00;;;2.60;99.90;;;;;;4962535;28;20279;-60
2021/12/16 08:57:42;;;;;;;45.47;20.23;;;2.60;99.90;;;;;;4971179;28;20546;-63
2021/12/16 09:00:14;;;;;;;50.77;21.43;;;2.60;99.90;;;;;;4970910;28;20204;-61
2021/12/16 09:02:41;;;;;;;43.60;19.50;;;2.60;99.90;;;;;;4953134;28;20585;-62
2021/12/16 09:05:09;;;;;;;51.23;21.23;;;2.50;99.90;;;;;;4969472;28;20200;-63
2021/12/16 09:07:36;;;;;;;47.20;21.47;;;2.60;99.90;;;;;;4971269;28;20208;-61
2021/12/16 09:10:04;;;;;;;52.23;22.63;;;2.60;99.90;;;;;;4952571;28;20204;-61
2021/12/16 09:15:13;;;;;;;46.33;20.83;;;2.60;99.90;;;;;;4949457;28;20533;-62
2021/12/16 09:17:40;;;;;;;44.20;20.67;;;2.60;99.90;;;;;;4970015;28;20511;-62
2021/12/16 09:20:09;;;;;;;46.73;21.13;;;2.60;99.90;;;;;;4971034;28;20235;-61
2021/12/16 09:22:36;;;;;;;45.27;19.77;;;2.60;99.90;;;;;;4971412;28;20299;-62
2021/12/16 09:25:05;;;;;;;48.97;21.10;;;2.60;99.90;;;;;;4971497;28;20300;-63
2021/12/16 09:27:33;;;;;;;46.30;22.00;;;2.60;99.90;;;;;;4969856;28;20244;-62
2021/12/16 09:30:01;;;;;;;50.00;22.00;;;2.60;99.90;;;;;;4951380;28;20615;-65
2021/12/16 09:32:30;;;;;;;49.30;22.40;;;2.70;99.90;;;;;;4951461;28;20209;-63
2021/12/16 09:34:58;;;;;;;44.53;20.60;;;2.70;99.90;;;;;;4951752;28;20693;-62
2021/12/16 09:37:25;;;;;;;47.63;22.17;;;2.70;99.90;;;;;;4951364;28;20573;-64
2021/12/16 09:39:52;;;;;;;46.67;22.07;;;2.80;99.90;;;;;;4951421;28;20243;-62
2021/12/16 09:42:19;;;;;;;51.90;21.67;;;2.80;99.90;;;;;;4962972;28;20220;-63
2021/12/16 09:44:48;;;;;;;42.43;20.20;;;2.80;99.90;;;;;;4951758;28;20212;-61
2021/12/16 09:47:15;;;;;;;44.43;20.43;;;2.70;99.90;;;;;;4951762;28;20672;-62
2021/12/16 09:49:42;;;;;;;48.13;22.77;;;2.70;99.90;;;;;;4951544;28;20204;-62
2021/12/16 09:52:11;;;;;;;45.50;21.17;;;2.80;99.90;;;;;;4951355;28;20219;-61
2021/12/16 09:54:39;;;;;;;48.57;22.07;;;2.70;99.90;;;;;;4951558;28;20208;-62
2021/12/16 09:57:06;;;;;;;46.77;21.63;;;2.80;99.90;;;;;;4951796;28;20204;-62
2021/12/16 09:59:34;;;;;;;51.03;23.07;;;2.80;99.90;;;;;;4951512;28;20294;-62
2021/12/16 10:02:07;;;;;;;46.10;22.33;;;2.80;99.90;;;;;;4951293;28;20219;-61
2021/12/16 10:04:34;;;;;;;48.70;23.63;;;2.80;99.90;;;;;;4951176;28;20200;-63
2021/12/16 10:07:05;;;;;;;54.97;24.17;;;2.70;99.90;;;;;;4951489;28;20661;-62
2021/12/16 10:09:32;;;;;;;57.97;26.57;;;2.70;99.90;;;;;;4951027;28;20193;-62
2021/12/16 10:12:08;;;;;;;54.70;25.83;;;2.70;99.90;;;;;;4950979;28;20216;-65
2021/12/16 10:14:58;;;;;;;58.70;26.03;;;2.80;99.90;;;;;;4951505;28;20565;-61
2021/12/16 10:17:30;;;;;;;49.77;23.37;;;2.90;99.90;;;;;;4951326;28;20197;-62
2021/12/16 10:20:02;;;;;;;49.10;23.40;;;3.00;99.90;;;;;;4951217;28;20673;-64
2021/12/16 10:22:35;;;;;;;55.30;24.57;;;3.00;99.90;;;;;;4950916;28;20685;-62
2021/12/16 10:25:22;;;;;;;50.77;21.43;;;3.10;99.90;;;;;;4951303;28;20205;-61
2021/12/16 10:27:58;;;;;;;43.93;22.13;;;3.10;99.90;;;;;;4950782;28;20236;-62
2021/12/16 10:30:26;;;;;;;44.47;21.97;;;3.20;99.90;;;;;;4950705;28;20196;-61
2021/12/16 10:32:55;;;;;;;44.40;21.10;;;3.20;99.90;;;;;;4951075;28;20668;-63
2021/12/16 10:35:30;;;;;;;49.63;22.97;;;3.30;99.90;;;;;;4950774;28;20258;-63
2021/12/16 10:38:03;;;;;;;43.37;22.13;;;3.30;99.90;;;;;;4951129;28;20633;-62
2021/12/16 10:40:37;;;;;;;45.00;22.53;;;3.40;99.90;;;;;;4950802;28;20689;-63
2021/12/16 10:43:08;;;;;;;46.90;22.07;;;3.50;99.90;;;;;;4950966;28;20668;-63
2021/12/16 10:45:39;;;;;;;45.87;23.23;;;3.50;99.90;;;;;;4951612;28;20200;-63
2021/12/16 10:48:26;;;;;;;45.47;23.13;;;3.50;99.90;;;;;;4954297;28;20193;-62
2021/12/16 10:51:04;;;;;;;47.60;22.63;;;3.50;99.90;;;;;;4954317;28;20204;-62
2021/12/16 10:54:02;;;;;;;45.47;21.50;;;3.60;99.90;;;;;;4953823;28;20197;-62
2021/12/16 10:56:32;;;;;;;49.67;23.77;;;3.60;99.90;;;;;;4975573;28;20296;-63
2021/12/16 10:59:03;;;;;;;50.00;22.70;;;3.60;99.90;;;;;;4954000;28;20217;-62
2021/12/16 11:01:38;;;;;;;48.63;24.17;;;3.70;99.90;;;;;;4954133;28;20208;-63
2021/12/16 11:04:10;;;;;;;45.13;22.57;;;3.70;99.90;;;;;;4954256;28;20196;-64
2021/12/16 11:06:39;;;;;;;48.80;23.10;;;3.80;99.90;;;;;;4954201;28;20204;-64
2021/12/16 11:09:33;;;;;;;48.03;22.83;;;3.80;99.90;;;;;;4953745;28;20352;-62
2021/12/16 11:12:22;;;;;;;48.60;23.37;;;3.80;99.90;;;;;;4954044;28;20209;-62
2021/12/16 11:14:53;;;;;;;46.20;22.40;;;3.80;99.90;;;;;;4954083;28;20203;-62
2021/12/16 11:17:23;;;;;;;48.90;23.53;;;3.80;99.90;;;;;;4953578;28;20196;-63
2021/12/16 11:19:56;;;;;;;53.03;24.57;;;3.90;99.90;;;;;;4953916;28;20561;-61
2021/12/16 11:22:28;;;;;;;45.20;23.20;;;3.90;99.90;;;;;;4953477;28;20196;-61
2021/12/16 11:24:56;;;;;;;44.40;22.47;;;3.90;99.90;;;;;;4953833;28;20196;-62
2021/12/16 11:27:29;;;;;;;50.37;24.70;;;3.90;99.90;;;;;;4953274;28;20244;-61
2021/12/16 11:29:59;;;;;;;50.27;23.53;;;3.90;99.90;;;;;;4953801;28;20542;-64
2021/12/16 11:32:37;;;;;;;50.27;22.87;;;4.00;99.90;;;;;;4953759;28;20664;-63
2021/12/16 11:35:31;;;;;;;51.33;23.47;;;4.00;99.90;;;;;;4953993;28;20684;-62
2021/12/16 11:38:02;;;;;;;54.10;24.63;;;4.00;99.90;;;;;;4953454;28;20189;-63
2021/12/16 11:40:30;;;;;;;56.73;25.33;;;4.00;99.90;;;;;;4953395;28;20589;-64
2021/12/16 11:43:03;;;;;;;50.43;25.20;;;3.90;99.90;;;;;;4953662;28;20666;-62
2021/12/16 11:45:38;;;;;;;60.93;25.97;;;4.00;99.90;;;;;;4953613;28;20204;-62
2021/12/16 11:48:07;;;;;;;57.07;25.43;;;3.90;99.90;;;;;;4953477;28;20568;-64
2021/12/16 11:50:44;;;;;;;58.93;25.60;;;3.90;99.90;;;;;;4953476;28;20205;-60
2021/12/16 11:53:12;;;;;;;59.23;25.47;;;3.90;99.90;;;;;;4953419;28;20193;-62
2021/12/16 11:55:39;;;;;;;60.33;25.67;;;3.90;99.90;;;;;;4953001;28;20209;-64
2021/12/16 11:58:09;;;;;;;63.70;28.63;;;3.90;99.90;;;;;;4952871;28;20209;-63
2021/12/16 12:00:38;;;;;;;62.90;26.03;;;3.90;99.90;;;;;;4952885;28;20232;-62
2021/12/16 12:03:08;;;;;;;63.37;26.50;;;3.90;99.90;;;;;;4953073;28;20315;-62
2021/12/16 12:05:42;;;;;;;68.43;28.20;;;3.90;99.90;;;;;;4953256;28;20209;-62
2021/12/16 12:08:13;;;;;;;70.00;28.53;;;4.00;99.90;;;;;;4953393;28;20597;-62
2021/12/16 12:10:43;;;;;;;69.53;30.07;;;4.00;99.90;;;;;;4953251;28;20197;-61
2021/12/16 12:13:13;;;;;;;64.77;28.60;;;4.00;99.90;;;;;;4952572;28;20205;-63
2021/12/16 12:15:55;;;;;;;68.97;28.77;;;4.10;99.90;;;;;;4952963;28;20209;-63
2021/12/16 12:18:33;;;;;;;65.57;27.33;;;4.10;99.90;;;;;;4952955;28;20209;-69
2021/12/16 12:23:56;;;;;;;65.93;26.73;;;4.10;99.90;;;;;;5109658;27;20950;-62
2021/12/16 12:26:25;;;;;;;75.03;28.73;;;4.10;99.90;;;;;;5109621;28;20214;-62
2021/12/16 12:28:57;;;;;;;70.70;27.83;;;4.10;99.90;;;;;;5109730;28;20660;-64
2021/12/16 12:31:27;;;;;;;71.93;29.80;;;4.10;99.90;;;;;;5109465;28;20196;-61
2021/12/16 12:33:54;;;;;;;70.80;28.53;;;4.10;99.90;;;;;;5109771;28;20210;-63
2021/12/16 12:36:23;;;;;;;76.63;29.83;;;4.10;99.90;;;;;;5109492;28;20203;-64
2021/12/16 12:38:50;;;;;;;83.73;29.53;;;4.10;99.90;;;;;;5109463;28;20207;-62
2021/12/16 12:41:19;;;;;;;79.00;30.60;;;4.10;99.90;;;;;;5109430;28;20214;-62
2021/12/16 12:43:46;;;;;;;77.93;29.23;;;4.10;99.90;;;;;;5109543;28;20702;-62
2021/12/16 12:46:13;;;;;;;72.83;27.83;;;4.10;99.90;;;;;;5108984;28;20214;-63
2021/12/16 12:48:42;;;;;;;73.77;29.53;;;4.10;99.90;;;;;;5109419;28;20298;-62
2021/12/16 12:51:09;;;;;;;72.23;27.80;;;4.10;99.90;;;;;;5109181;28;20206;-61
2021/12/16 12:53:46;;;;;;;80.37;29.07;;;4.10;99.90;;;;;;5109338;28;20203;-63
2021/12/16 12:56:16;;;;;;;82.10;29.97;;;4.20;99.90;;;;;;5108992;28;20191;-62
2021/12/16 12:58:58;;;;;;;82.13;29.40;;;4.10;99.90;;;;;;5109511;28;20222;-62
2021/12/16 13:01:38;;;;;;;93.50;31.23;;;4.10;99.90;;;;;;5109022;28;20617;-63
2021/12/16 13:04:10;;;;;;;75.33;26.97;;;4.10;99.90;;;;;;5108864;28;20196;-62
2021/12/16 13:06:56;;;;;;;76.53;28.77;;;4.10;99.90;;;;;;5108700;28;20196;-64
2021/12/16 13:09:33;;;;;;;85.33;29.60;;;4.10;99.90;;;;;;5109050;28;20613;-61
2021/12/16 13:12:01;;;;;;;85.40;30.57;;;4.20;99.90;;;;;;5108465;28;20433;-63
2021/12/16 13:14:47;;;;;;;87.70;30.53;;;4.20;99.90;;;;;;5108715;28;20627;-62
2021/12/16 13:26:16;;;;;;;86.23;29.63;;;4.20;99.90;;;;;;5108521;28;20191;-63
2021/12/16 13:29:00;;;;;;;88.07;30.30;;;4.20;99.90;;;;;;5108642;28;20199;-65
2021/12/16 13:31:40;;;;;;;96.90;30.80;;;4.20;99.90;;;;;;5108629;28;20213;-62
2021/12/16 13:34:28;;;;;;;86.13;29.63;;;4.20;99.90;;;;;;5101339;28;20216;-62
2021/12/16 13:36:57;;;;;;;91.50;29.60;;;4.20;99.90;;;;;;5094874;28;20671;-61
2021/12/16 13:39:29;;;;;;;80.13;28.80;;;4.20;99.90;;;;;;5094637;28;20200;-62
2021/12/16 13:42:06;;;;;;;97.80;31.27;;;4.20;99.90;;;;;;5094269;28;20196;-63
2021/12/16 13:44:46;;;;;;;75.00;27.80;;;4.20;99.90;;;;;;5094748;28;20199;-61
2021/12/16 13:47:26;;;;;;;81.70;28.37;;;4.20;99.90;;;;;;5094779;28;20193;-62
2021/12/16 14:05:48;;;;;;;76.93;29.33;;;4.20;99.90;;;;;;5083325;28;20200;-63
2021/12/16 14:08:34;;;;;;;82.43;28.47;;;4.20;99.90;;;;;;5094100;28;20194;-63
2021/12/16 14:11:16;;;;;;;66.87;26.93;;;4.20;99.90;;;;;;5094269;28;20196;-63
2021/12/16 14:16:54;;;;;;;83.27;28.10;;;4.20;99.90;;;;;;5094136;28;20267;-63
2021/12/16 14:25:27;;;;;;;59.60;25.07;;;4.20;99.90;;;;;;5093707;28;20561;-62
2021/12/16 14:39:39;;;;;;;57.93;24.27;;;4.20;99.90;;;;;;5093566;28;20180;-63
2021/12/16 14:45:17;;;;;;;54.33;22.63;;;4.20;99.90;;;;;;5085267;28;20665;-62
2021/12/16 14:48:03;;;;;;;53.27;21.83;;;4.20;99.90;;;;;;5093047;28;20185;-62
2021/12/16 14:50:35;;;;;;;53.13;23.30;;;4.30;99.90;;;;;;5093341;28;20222;-63
2021/12/16 14:53:16;;;;;;;55.10;24.77;;;4.30;99.90;;;;;;5093283;28;20185;-61
2021/12/16 14:55:43;;;;;;;56.67;22.87;;;4.30;99.90;;;;;;5092863;28;20184;-62
2021/12/16 14:58:10;;;;;;;52.77;23.77;;;4.30;99.90;;;;;;5093179;28;20211;-61
2021/12/16 15:00:43;;;;;;;51.67;23.07;;;4.30;99.90;;;;;;5092542;28;20210;-61
2021/12/16 15:03:13;;;;;;;48.70;22.27;;;4.30;99.90;;;;;;5092979;28;20204;-64
2021/12/16 15:05:45;;;;;;;52.73;23.70;;;4.30;99.90;;;;;;5093015;28;20246;-64
2021/12/16 15:08:19;;;;;;;56.80;23.37;;;4.40;99.90;;;;;;5093032;28;20195;-61
2021/12/16 15:10:46;;;;;;;43.70;21.17;;;4.40;99.90;;;;;;5092969;28;20184;-62
2021/12/16 15:13:19;;;;;;;50.93;22.17;;;4.40;99.90;;;;;;5092824;28;20200;-62
2021/12/16 15:16:11;;;;;;;45.37;20.63;;;4.40;99.90;;;;;;5092801;28;20628;-62
2021/12/16 15:38:32;;;;;;;42.87;20.93;;;4.50;99.90;;;;;;5084486;28;20280;-62
2021/12/16 15:43:55;;;;;;;39.07;18.90;;;4.50;99.90;;;;;;5092105;28;20226;-64
2021/12/16 15:46:22;;;;;;;43.63;19.57;;;4.50;99.90;;;;;;5092294;28;20383;-63
2021/12/16 15:48:51;;;;;;;37.67;18.40;;;4.50;99.90;;;;;;5091828;28;20204;-63
2021/12/16 15:51:18;;;;;;;43.43;19.60;;;4.50;99.90;;;;;;5091836;28;20211;-62
2021/12/16 15:53:48;;;;;;;43.13;20.03;;;4.50;99.90;;;;;;5091680;28;20196;-63
2021/12/16 15:56:20;;;;;;;37.70;19.57;;;4.50;99.90;;;;;;5092082;28;20203;-63
2021/12/16 15:58:50;;;;;;;40.30;19.17;;;4.50;99.90;;;;;;5091929;28;20192;-61
2021/12/16 16:01:19;;;;;;;43.47;20.23;;;4.50;99.90;;;;;;5091907;28;20193;-62
2021/12/16 16:03:47;;;;;;;41.47;21.00;;;4.50;99.90;;;;;;5091199;28;20676;-62
2021/12/16 16:06:16;;;;;;;46.87;21.37;;;4.60;99.90;;;;;;5090721;28;20640;-63